DAL68 RCTP-KSEA
Flight info
| Callsign | DAL68 |
|---|---|
| Flight time | N/A |
| Altitude | 33000 |
| Route | ROBIN1C ROBIN R583 BORDO Z29 GAKIA Y293 YULIA Y57 DOMBI/N0476F350 Y57 POROT Y809 IDLAN Y812 ADNAP OTR5 KALNA DCT 45N160E 50N170E/N0477F370 DCT EYETI DCT RADIC DCT 55N160W 56N150W DCT PHINK/N0456F390 DCT KATCH DCT YZT Q902 VIXOR MARNR8 |
| Aircraft | A339/H-SADE1E2E3GHIJ3J5M1P2RWXY/LB2D1 |
Departure
| Time | N/A |
|---|---|
| Airport | Taiwan Taoyuan International Airport (RCTP) |
Arrival
| Time | 2026-05-07 18:08 |
|---|---|
| Airport | Seattle–Tacoma International Airport (KSEA) |
| Time | Latitude | Longitude | Altitude | Speed | Heading |
|---|---|---|---|---|---|
| 2026-05-07 12:35 | 50.19286 | 170.53392 | 34844 ft | 515 kts | 54° |
| 2026-05-07 12:35 | 50.22763 | 170.63109 | 34850 ft | 517 kts | 54° |
| 2026-05-07 12:36 | 50.24508 | 170.68005 | 35055 ft | 517 kts | 56° |
| 2026-05-07 12:36 | 50.26249 | 170.72922 | 35336 ft | 515 kts | 55° |
| 2026-05-07 12:36 | 50.27961 | 170.77776 | 35613 ft | 512 kts | 56° |
| 2026-05-07 12:36 | 50.29677 | 170.82637 | 35851 ft | 510 kts | 56° |
| 2026-05-07 12:37 | 50.31369 | 170.87415 | 36069 ft | 509 kts | 56° |
| 2026-05-07 12:37 | 50.33081 | 170.92258 | 36248 ft | 509 kts | 56° |
| 2026-05-07 12:37 | 50.34794 | 170.97113 | 36417 ft | 509 kts | 56° |
| 2026-05-07 12:37 | 50.36492 | 171.01939 | 36589 ft | 509 kts | 56° |
| 2026-05-07 12:38 | 50.38188 | 171.06775 | 36776 ft | 508 kts | 56° |
| 2026-05-07 12:38 | 50.39877 | 171.11606 | 36849 ft | 508 kts | 56° |
| 2026-05-07 12:38 | 50.43259 | 171.21301 | 36831 ft | 507 kts | 56° |
| 2026-05-07 12:39 | 50.46599 | 171.30919 | 36843 ft | 506 kts | 56° |
| 2026-05-07 12:39 | 50.49957 | 171.40624 | 36831 ft | 505 kts | 57° |
| 2026-05-07 12:40 | 50.53298 | 171.50305 | 36828 ft | 505 kts | 57° |
| 2026-05-07 12:40 | 50.56611 | 171.59955 | 36816 ft | 504 kts | 57° |
| 2026-05-07 12:41 | 50.59927 | 171.69647 | 36823 ft | 504 kts | 58° |
| 2026-05-07 12:41 | 50.63217 | 171.79298 | 36822 ft | 503 kts | 58° |
| 2026-05-07 12:42 | 50.66498 | 171.88962 | 36826 ft | 502 kts | 58° |
| 2026-05-07 12:42 | 50.69763 | 171.98612 | 36825 ft | 501 kts | 58° |
| 2026-05-07 12:43 | 50.73035 | 172.08321 | 36831 ft | 501 kts | 58° |
| 2026-05-07 12:43 | 50.76280 | 172.17992 | 36820 ft | 501 kts | 58° |
| 2026-05-07 12:44 | 50.79520 | 172.27679 | 36823 ft | 500 kts | 58° |
| 2026-05-07 12:44 | 50.82742 | 172.37347 | 36816 ft | 499 kts | 58° |
| 2026-05-07 12:45 | 50.85938 | 172.46980 | 36821 ft | 499 kts | 58° |
| 2026-05-07 12:45 | 50.89149 | 172.56692 | 36811 ft | 499 kts | 58° |
| 2026-05-07 12:46 | 50.92345 | 172.66399 | 36817 ft | 498 kts | 59° |
| 2026-05-07 12:46 | 50.95534 | 172.76115 | 36820 ft | 498 kts | 60° |
| 2026-05-07 12:47 | 50.98698 | 172.85803 | 36820 ft | 498 kts | 60° |
| 2026-05-07 12:47 | 51.01859 | 172.95520 | 36826 ft | 496 kts | 60° |
| 2026-05-07 12:48 | 51.05004 | 173.05226 | 36828 ft | 496 kts | 60° |
| 2026-05-07 12:48 | 51.08141 | 173.14938 | 36830 ft | 496 kts | 60° |
| 2026-05-07 12:49 | 51.11271 | 173.24670 | 36826 ft | 496 kts | 60° |
| 2026-05-07 12:49 | 51.14415 | 173.34474 | 36828 ft | 496 kts | 60° |
| 2026-05-07 12:50 | 51.17508 | 173.44179 | 36825 ft | 496 kts | 60° |
| 2026-05-07 12:50 | 51.20620 | 173.53984 | 36820 ft | 496 kts | 60° |
| 2026-05-07 12:51 | 51.23714 | 173.63765 | 36826 ft | 495 kts | 60° |
| 2026-05-07 12:51 | 51.26786 | 173.73505 | 36817 ft | 495 kts | 62° |
| 2026-05-07 12:52 | 51.29854 | 173.83276 | 36823 ft | 494 kts | 62° |
| 2026-05-07 12:52 | 51.32935 | 173.93124 | 36809 ft | 494 kts | 62° |
| 2026-05-07 12:53 | 51.35979 | 174.02889 | 36804 ft | 494 kts | 62° |
| 2026-05-07 12:53 | 51.39025 | 174.12706 | 36799 ft | 493 kts | 62° |
| 2026-05-07 12:54 | 51.42054 | 174.22507 | 36803 ft | 493 kts | 62° |
| 2026-05-07 12:54 | 51.45065 | 174.32289 | 36800 ft | 493 kts | 62° |
| 2026-05-07 12:55 | 51.48074 | 174.42104 | 36803 ft | 492 kts | 62° |
| 2026-05-07 12:55 | 51.51071 | 174.51923 | 36802 ft | 492 kts | 62° |
| 2026-05-07 12:56 | 51.54053 | 174.61728 | 36798 ft | 491 kts | 62° |
| 2026-05-07 12:56 | 51.57024 | 174.71533 | 36799 ft | 491 kts | 63° |
| 2026-05-07 12:57 | 51.59990 | 174.81370 | 36805 ft | 491 kts | 63° |
| 2026-05-07 12:57 | 51.62956 | 174.91243 | 36802 ft | 491 kts | 63° |
| 2026-05-07 12:58 | 51.65910 | 175.01114 | 36803 ft | 490 kts | 63° |
| 2026-05-07 12:58 | 51.68844 | 175.10960 | 36806 ft | 490 kts | 63° |
| 2026-05-07 12:59 | 51.71768 | 175.20815 | 36809 ft | 489 kts | 63° |
| 2026-05-07 12:59 | 51.74677 | 175.30659 | 36813 ft | 489 kts | 63° |
| 2026-05-07 13:00 | 51.77586 | 175.40544 | 36811 ft | 489 kts | 64° |
| 2026-05-07 13:00 | 51.80487 | 175.50438 | 36815 ft | 489 kts | 64° |
| 2026-05-07 13:01 | 51.83358 | 175.60271 | 36812 ft | 489 kts | 64° |
| 2026-05-07 13:01 | 51.86241 | 175.70189 | 36811 ft | 488 kts | 64° |
| 2026-05-07 13:02 | 51.89106 | 175.80083 | 36810 ft | 487 kts | 64° |
| 2026-05-07 13:02 | 51.91970 | 175.90022 | 36809 ft | 487 kts | 64° |
| 2026-05-07 13:03 | 51.94801 | 175.99886 | 36811 ft | 486 kts | 64° |
| 2026-05-07 13:03 | 51.97638 | 176.09807 | 36803 ft | 485 kts | 65° |
| 2026-05-07 13:04 | 52.00459 | 176.19717 | 36797 ft | 485 kts | 65° |
| 2026-05-07 13:04 | 52.03267 | 176.29622 | 36801 ft | 485 kts | 65° |
| 2026-05-07 13:05 | 52.06057 | 176.39504 | 36806 ft | 485 kts | 65° |
| 2026-05-07 13:05 | 52.08864 | 176.49486 | 36809 ft | 485 kts | 65° |
| 2026-05-07 13:06 | 52.11643 | 176.59413 | 36810 ft | 485 kts | 65° |
| 2026-05-07 13:06 | 52.14414 | 176.69357 | 36810 ft | 485 kts | 65° |
| 2026-05-07 13:07 | 52.17181 | 176.79329 | 36810 ft | 484 kts | 66° |
| 2026-05-07 13:07 | 52.19919 | 176.89235 | 36812 ft | 484 kts | 66° |
| 2026-05-07 13:08 | 52.22673 | 176.99243 | 36811 ft | 484 kts | 66° |
| 2026-05-07 13:08 | 52.25389 | 177.09160 | 36811 ft | 483 kts | 66° |
| 2026-05-07 13:09 | 52.28119 | 177.19163 | 36816 ft | 483 kts | 66° |
| 2026-05-07 13:09 | 52.30834 | 177.29160 | 36816 ft | 482 kts | 66° |
| 2026-05-07 13:10 | 52.33524 | 177.39108 | 36816 ft | 482 kts | 66° |
| 2026-05-07 13:10 | 52.36216 | 177.49109 | 36816 ft | 482 kts | 66° |
| 2026-05-07 13:11 | 52.38891 | 177.59090 | 36816 ft | 481 kts | 66° |
| 2026-05-07 13:11 | 52.41561 | 177.69089 | 36814 ft | 480 kts | 67° |
| 2026-05-07 13:12 | 52.44199 | 177.79015 | 36814 ft | 478 kts | 68° |
| 2026-05-07 13:12 | 52.46838 | 177.88989 | 36813 ft | 478 kts | 68° |
| 2026-05-07 13:13 | 52.49466 | 177.98962 | 36814 ft | 477 kts | 68° |
| 2026-05-07 13:13 | 52.52082 | 178.08940 | 36816 ft | 477 kts | 68° |
| 2026-05-07 13:14 | 52.54690 | 178.18924 | 36815 ft | 477 kts | 68° |
| 2026-05-07 13:14 | 52.57267 | 178.28836 | 36815 ft | 476 kts | 68° |
| 2026-05-07 13:15 | 52.59855 | 178.38837 | 36811 ft | 475 kts | 68° |
| 2026-05-07 13:15 | 52.62410 | 178.48752 | 36811 ft | 474 kts | 68° |
| 2026-05-07 13:16 | 52.64975 | 178.58748 | 36808 ft | 474 kts | 68° |
| 2026-05-07 13:16 | 52.67503 | 178.68648 | 36811 ft | 473 kts | 69° |
| 2026-05-07 13:17 | 52.70040 | 178.78622 | 36810 ft | 472 kts | 69° |
| 2026-05-07 13:17 | 52.72558 | 178.88562 | 36806 ft | 471 kts | 69° |
| 2026-05-07 13:18 | 52.75062 | 178.98497 | 36807 ft | 470 kts | 69° |
| 2026-05-07 13:18 | 52.77554 | 179.08426 | 36809 ft | 470 kts | 69° |
| 2026-05-07 13:19 | 52.80025 | 179.18321 | 36807 ft | 470 kts | 69° |
| 2026-05-07 13:19 | 52.82507 | 179.28304 | 36807 ft | 470 kts | 69° |
| 2026-05-07 13:20 | 52.84971 | 179.38257 | 36808 ft | 469 kts | 69° |
| 2026-05-07 13:20 | 52.87421 | 179.48196 | 36806 ft | 469 kts | 69° |
| 2026-05-07 13:21 | 52.89857 | 179.58128 | 36811 ft | 468 kts | 69° |
| 2026-05-07 13:21 | 52.92289 | 179.68089 | 36813 ft | 468 kts | 70° |
| 2026-05-07 13:22 | 52.94716 | 179.78073 | 36812 ft | 467 kts | 70° |
| 2026-05-07 13:22 | 52.97123 | 179.88028 | 36813 ft | 467 kts | 70° |
| 2026-05-07 13:23 | 52.99432 | 179.97980 | 36810 ft | 466 kts | 73° |
| 2026-05-07 13:23 | 53.01199 | -179.91759 | 36822 ft | 464 kts | 78° |
| 2026-05-07 13:24 | 53.02695 | -179.81377 | 36813 ft | 463 kts | 78° |
| 2026-05-07 13:24 | 53.04166 | -179.71022 | 36808 ft | 462 kts | 78° |
| 2026-05-07 13:25 | 53.05628 | -179.60687 | 36811 ft | 461 kts | 78° |
| 2026-05-07 13:25 | 53.07085 | -179.50320 | 36808 ft | 460 kts | 78° |
| 2026-05-07 13:26 | 53.08527 | -179.40007 | 36819 ft | 460 kts | 79° |
| 2026-05-07 13:26 | 53.09962 | -179.29678 | 36807 ft | 459 kts | 79° |
| 2026-05-07 13:27 | 53.11379 | -179.19403 | 36802 ft | 459 kts | 79° |
| 2026-05-07 13:27 | 53.12794 | -179.09078 | 36811 ft | 459 kts | 80° |
| 2026-05-07 13:28 | 53.14197 | -178.98773 | 36804 ft | 458 kts | 79° |
| 2026-05-07 13:28 | 53.15585 | -178.88498 | 36813 ft | 456 kts | 80° |
| 2026-05-07 13:29 | 53.16964 | -178.78221 | 36807 ft | 455 kts | 80° |
| 2026-05-07 13:29 | 53.18322 | -178.67973 | 36808 ft | 455 kts | 80° |
| 2026-05-07 13:30 | 53.19678 | -178.57704 | 36810 ft | 455 kts | 80° |
| 2026-05-07 13:30 | 53.21026 | -178.47443 | 36804 ft | 455 kts | 81° |
| 2026-05-07 13:31 | 53.22359 | -178.37180 | 36803 ft | 454 kts | 81° |
| 2026-05-07 13:31 | 53.23680 | -178.26968 | 36792 ft | 452 kts | 81° |
| 2026-05-07 13:32 | 53.25000 | -178.16699 | 36790 ft | 451 kts | 81° |
| 2026-05-07 13:32 | 53.26299 | -178.06497 | 36787 ft | 451 kts | 81° |
| 2026-05-07 13:33 | 53.27598 | -177.96286 | 36791 ft | 452 kts | 81° |
| 2026-05-07 13:33 | 53.28867 | -177.86131 | 36782 ft | 451 kts | 81° |
| 2026-05-07 13:34 | 53.30784 | -177.70789 | 36791 ft | 451 kts | 81° |
| 2026-05-07 13:35 | 53.32042 | -177.60570 | 36783 ft | 450 kts | 81° |
| 2026-05-07 13:35 | 53.33292 | -177.50380 | 36784 ft | 449 kts | 82° |
| 2026-05-07 13:36 | 53.34535 | -177.40175 | 36791 ft | 450 kts | 82° |
| 2026-05-07 13:36 | 53.35759 | -177.30000 | 36792 ft | 449 kts | 82° |
| 2026-05-07 13:37 | 53.36975 | -177.19798 | 36794 ft | 449 kts | 82° |
| 2026-05-07 13:37 | 53.38194 | -177.09554 | 36794 ft | 448 kts | 82° |
| 2026-05-07 13:38 | 53.39391 | -176.99403 | 36795 ft | 448 kts | 82° |
| 2026-05-07 13:38 | 53.40580 | -176.89217 | 36800 ft | 448 kts | 82° |
| 2026-05-07 13:39 | 53.41762 | -176.79018 | 36805 ft | 447 kts | 83° |
| 2026-05-07 13:39 | 53.42933 | -176.68828 | 36796 ft | 447 kts | 82° |
| 2026-05-07 13:40 | 53.44097 | -176.58630 | 36816 ft | 447 kts | 83° |
| 2026-05-07 13:40 | 53.45248 | -176.48467 | 36807 ft | 446 kts | 82° |
| 2026-05-07 13:41 | 53.46390 | -176.38312 | 36821 ft | 445 kts | 83° |
| 2026-05-07 13:41 | 53.47523 | -176.28140 | 36808 ft | 445 kts | 83° |
| 2026-05-07 13:41 | 53.48085 | -176.23064 | 36653 ft | 445 kts | 83° |
| 2026-05-07 13:42 | 53.48642 | -176.18004 | 36737 ft | 446 kts | 83° |
| 2026-05-07 13:42 | 53.49765 | -176.07752 | 36781 ft | 446 kts | 83° |
| 2026-05-07 13:43 | 53.50873 | -175.97565 | 36808 ft | 446 kts | 83° |
| 2026-05-07 13:43 | 53.51971 | -175.87380 | 36808 ft | 445 kts | 83° |
| 2026-05-07 13:44 | 53.53063 | -175.77177 | 36818 ft | 445 kts | 83° |
| 2026-05-07 13:44 | 53.54141 | -175.67009 | 36812 ft | 445 kts | 83° |
| 2026-05-07 13:45 | 53.55217 | -175.56781 | 36815 ft | 446 kts | 83° |
| 2026-05-07 13:45 | 53.56279 | -175.46564 | 36811 ft | 445 kts | 83° |
| 2026-05-07 13:46 | 53.57338 | -175.36325 | 36819 ft | 446 kts | 83° |
| 2026-05-07 13:46 | 53.58380 | -175.26137 | 36822 ft | 445 kts | 84° |
| 2026-05-07 13:47 | 53.59419 | -175.15898 | 36832 ft | 445 kts | 84° |
| 2026-05-07 13:47 | 53.60443 | -175.05718 | 36829 ft | 445 kts | 84° |
| 2026-05-07 13:48 | 53.61465 | -174.95470 | 36818 ft | 444 kts | 84° |
| 2026-05-07 13:48 | 53.62471 | -174.85286 | 36827 ft | 444 kts | 83° |
| 2026-05-07 13:49 | 53.63471 | -174.75069 | 36828 ft | 444 kts | 84° |
| 2026-05-07 13:49 | 53.64467 | -174.64809 | 36829 ft | 445 kts | 83° |
| 2026-05-07 13:50 | 53.65451 | -174.54576 | 36832 ft | 445 kts | 84° |
| 2026-05-07 13:50 | 53.66428 | -174.44292 | 36836 ft | 445 kts | 83° |
| 2026-05-07 13:51 | 53.67393 | -174.34049 | 36836 ft | 445 kts | 84° |
| 2026-05-07 13:51 | 53.68350 | -174.23801 | 36843 ft | 445 kts | 84° |
| 2026-05-07 13:52 | 53.69302 | -174.13496 | 36833 ft | 445 kts | 84° |
| 2026-05-07 13:52 | 53.70239 | -174.03275 | 36846 ft | 445 kts | 84° |
| 2026-05-07 13:53 | 53.71175 | -173.92975 | 36838 ft | 445 kts | 84° |
| 2026-05-07 13:53 | 53.72097 | -173.82695 | 36854 ft | 444 kts | 84° |
| 2026-05-07 13:54 | 53.73006 | -173.72450 | 36850 ft | 445 kts | 84° |
| 2026-05-07 13:54 | 53.73913 | -173.62154 | 36847 ft | 445 kts | 84° |
| 2026-05-07 13:55 | 53.74815 | -173.51814 | 36846 ft | 444 kts | 84° |
| 2026-05-07 13:55 | 53.75699 | -173.41559 | 36860 ft | 444 kts | 84° |
| 2026-05-07 13:56 | 53.76580 | -173.31242 | 36848 ft | 445 kts | 84° |
| 2026-05-07 13:56 | 53.77446 | -173.20962 | 36857 ft | 444 kts | 84° |
| 2026-05-07 13:57 | 53.78309 | -173.10657 | 36860 ft | 445 kts | 84° |
| 2026-05-07 13:57 | 53.79158 | -173.00400 | 36870 ft | 445 kts | 84° |
| 2026-05-07 13:58 | 53.80004 | -172.90074 | 36859 ft | 444 kts | 84° |
| 2026-05-07 13:58 | 53.80840 | -172.79753 | 36857 ft | 444 kts | 84° |
| 2026-05-07 13:59 | 53.81664 | -172.69450 | 36865 ft | 445 kts | 84° |
| 2026-05-07 13:59 | 53.82481 | -172.59126 | 36871 ft | 445 kts | 84° |
| 2026-05-07 14:00 | 53.83292 | -172.48755 | 36872 ft | 445 kts | 84° |
| 2026-05-07 14:00 | 53.84094 | -172.38384 | 36868 ft | 445 kts | 84° |
| 2026-05-07 14:01 | 53.84880 | -172.28093 | 36857 ft | 445 kts | 85° |
| 2026-05-07 14:01 | 53.85663 | -172.17735 | 36869 ft | 445 kts | 84° |
| 2026-05-07 14:02 | 53.86439 | -172.07344 | 36864 ft | 446 kts | 84° |
| 2026-05-07 14:02 | 53.87205 | -171.96959 | 36860 ft | 446 kts | 84° |
| 2026-05-07 14:03 | 53.87961 | -171.86586 | 36868 ft | 446 kts | 84° |
| 2026-05-07 14:03 | 53.88705 | -171.76236 | 36866 ft | 446 kts | 84° |
| 2026-05-07 14:04 | 53.89447 | -171.65781 | 36869 ft | 447 kts | 84° |
| 2026-05-07 14:04 | 53.90176 | -171.55389 | 36864 ft | 447 kts | 84° |
| 2026-05-07 14:05 | 53.90902 | -171.44928 | 36865 ft | 447 kts | 84° |
| 2026-05-07 14:05 | 53.91614 | -171.34511 | 36871 ft | 448 kts | 85° |
| 2026-05-07 14:06 | 53.92321 | -171.24026 | 36878 ft | 448 kts | 85° |
| 2026-05-07 14:06 | 53.93024 | -171.13498 | 36893 ft | 449 kts | 85° |
| 2026-05-07 14:07 | 53.93710 | -171.03075 | 36889 ft | 449 kts | 85° |
| 2026-05-07 14:07 | 53.94391 | -170.92572 | 36884 ft | 449 kts | 84° |
| 2026-05-07 14:08 | 53.95063 | -170.82051 | 36883 ft | 450 kts | 84° |
| 2026-05-07 14:08 | 53.95727 | -170.71539 | 36889 ft | 450 kts | 84° |
| 2026-05-07 14:09 | 53.96380 | -170.61050 | 36887 ft | 450 kts | 84° |
| 2026-05-07 14:09 | 53.97028 | -170.50481 | 36884 ft | 451 kts | 84° |
| 2026-05-07 14:10 | 53.97669 | -170.39877 | 36884 ft | 451 kts | 84° |
| 2026-05-07 14:10 | 53.98299 | -170.29288 | 36891 ft | 451 kts | 85° |
| 2026-05-07 14:11 | 53.98921 | -170.18687 | 36887 ft | 452 kts | 85° |
| 2026-05-07 14:11 | 53.99530 | -170.08118 | 36889 ft | 452 kts | 85° |
| 2026-05-07 14:12 | 54.00413 | -169.97562 | 36887 ft | 454 kts | 79° |
| 2026-05-07 14:12 | 54.01830 | -169.87088 | 36895 ft | 454 kts | 77° |
| 2026-05-07 14:13 | 54.03329 | -169.76640 | 36896 ft | 454 kts | 77° |
| 2026-05-07 14:13 | 54.04801 | -169.66292 | 36888 ft | 454 kts | 77° |
| 2026-05-07 14:14 | 54.06264 | -169.55911 | 36891 ft | 454 kts | 76° |
| 2026-05-07 14:14 | 54.07725 | -169.45477 | 36895 ft | 455 kts | 76° |
| 2026-05-07 14:15 | 54.09179 | -169.35022 | 36895 ft | 455 kts | 76° |
| 2026-05-07 14:15 | 54.10619 | -169.24596 | 36894 ft | 456 kts | 77° |
| 2026-05-07 14:16 | 54.12065 | -169.14061 | 36898 ft | 456 kts | 77° |
| 2026-05-07 14:16 | 54.13491 | -169.03589 | 36894 ft | 457 kts | 77° |
| 2026-05-07 14:17 | 54.14914 | -168.93065 | 36900 ft | 457 kts | 77° |
| 2026-05-07 14:17 | 54.16327 | -168.82539 | 36899 ft | 456 kts | 77° |
| 2026-05-07 14:18 | 54.17725 | -168.72044 | 36902 ft | 456 kts | 77° |
| 2026-05-07 14:18 | 54.19114 | -168.61563 | 36906 ft | 457 kts | 77° |
| 2026-05-07 14:19 | 54.20498 | -168.51033 | 36912 ft | 457 kts | 76° |
| 2026-05-07 14:19 | 54.21876 | -168.40471 | 36912 ft | 458 kts | 76° |
| 2026-05-07 14:20 | 54.23251 | -168.29846 | 36914 ft | 457 kts | 77° |
| 2026-05-07 14:20 | 54.24606 | -168.19313 | 36917 ft | 458 kts | 77° |
| 2026-05-07 14:21 | 54.25963 | -168.08688 | 36919 ft | 459 kts | 77° |
| 2026-05-07 14:21 | 54.27312 | -167.98036 | 36923 ft | 459 kts | 77° |
| 2026-05-07 14:22 | 54.28649 | -167.87399 | 36919 ft | 459 kts | 77° |
| 2026-05-07 14:22 | 54.29974 | -167.76773 | 36922 ft | 460 kts | 77° |
| 2026-05-07 14:23 | 54.31295 | -167.66093 | 36915 ft | 460 kts | 76° |
| 2026-05-07 14:23 | 54.32611 | -167.55380 | 36926 ft | 461 kts | 76° |
| 2026-05-07 14:24 | 54.33910 | -167.44714 | 36920 ft | 461 kts | 76° |
| 2026-05-07 14:24 | 54.35210 | -167.33951 | 36931 ft | 462 kts | 77° |
| 2026-05-07 14:25 | 54.36499 | -167.23192 | 36929 ft | 463 kts | 77° |
| 2026-05-07 14:25 | 54.37773 | -167.12474 | 36934 ft | 463 kts | 77° |
| 2026-05-07 14:26 | 54.39044 | -167.01689 | 36932 ft | 463 kts | 77° |
| 2026-05-07 14:26 | 54.40310 | -166.90883 | 36935 ft | 464 kts | 77° |
| 2026-05-07 14:27 | 54.41570 | -166.80035 | 36944 ft | 465 kts | 77° |
| 2026-05-07 14:27 | 54.42813 | -166.69234 | 36946 ft | 466 kts | 77° |
| 2026-05-07 14:28 | 54.44052 | -166.58374 | 36950 ft | 466 kts | 77° |
| 2026-05-07 14:28 | 54.45282 | -166.47501 | 36957 ft | 466 kts | 77° |
| 2026-05-07 14:29 | 54.46510 | -166.36542 | 36966 ft | 467 kts | 77° |
| 2026-05-07 14:29 | 54.47717 | -166.25667 | 36968 ft | 468 kts | 77° |
| 2026-05-07 14:30 | 54.48925 | -166.14693 | 36973 ft | 468 kts | 77° |
| 2026-05-07 14:30 | 54.50122 | -166.03734 | 36968 ft | 468 kts | 77° |
| 2026-05-07 14:31 | 54.51302 | -165.92780 | 36977 ft | 468 kts | 77° |
| 2026-05-07 14:31 | 54.52484 | -165.81789 | 36973 ft | 469 kts | 77° |
| 2026-05-07 14:32 | 54.53656 | -165.70804 | 36973 ft | 469 kts | 77° |
| 2026-05-07 14:32 | 54.54822 | -165.59740 | 36977 ft | 470 kts | 77° |
| 2026-05-07 14:33 | 54.55975 | -165.48703 | 36972 ft | 471 kts | 77° |
| 2026-05-07 14:33 | 54.57120 | -165.37624 | 36974 ft | 472 kts | 77° |
| 2026-05-07 14:34 | 54.58249 | -165.26588 | 36973 ft | 472 kts | 78° |
| 2026-05-07 14:34 | 54.59381 | -165.15451 | 36977 ft | 473 kts | 78° |
| 2026-05-07 14:35 | 54.60500 | -165.04311 | 36979 ft | 472 kts | 78° |
| 2026-05-07 14:35 | 54.61607 | -164.93202 | 36973 ft | 473 kts | 78° |
| 2026-05-07 14:36 | 54.62700 | -164.82118 | 36957 ft | 473 kts | 78° |
| 2026-05-07 14:36 | 54.63788 | -164.70962 | 36941 ft | 473 kts | 78° |
| 2026-05-07 14:37 | 54.64863 | -164.59834 | 37070 ft | 473 kts | 78° |
| 2026-05-07 14:37 | 54.66460 | -164.43103 | 36966 ft | 473 kts | 78° |
| 2026-05-07 14:38 | 54.67519 | -164.31868 | 36953 ft | 472 kts | 79° |
| 2026-05-07 14:38 | 54.68555 | -164.20721 | 36946 ft | 472 kts | 79° |
| 2026-05-07 14:39 | 54.69578 | -164.09576 | 36914 ft | 472 kts | 78° |
| 2026-05-07 14:39 | 54.70592 | -163.98465 | 36873 ft | 472 kts | 79° |
| 2026-05-07 14:40 | 54.71605 | -163.87251 | 36852 ft | 472 kts | 79° |
| 2026-05-07 14:40 | 54.72599 | -163.76121 | 36857 ft | 472 kts | 79° |
| 2026-05-07 14:41 | 54.73592 | -163.64897 | 36881 ft | 472 kts | 79° |
| 2026-05-07 14:41 | 54.74569 | -163.53717 | 36915 ft | 472 kts | 79° |
| 2026-05-07 14:42 | 54.75534 | -163.42558 | 36957 ft | 472 kts | 79° |
| 2026-05-07 14:42 | 54.76493 | -163.31342 | 36977 ft | 472 kts | 80° |
| 2026-05-07 14:43 | 54.77437 | -163.20175 | 36977 ft | 472 kts | 80° |
| 2026-05-07 14:43 | 54.78374 | -163.08971 | 36991 ft | 472 kts | 80° |
| 2026-05-07 14:44 | 54.79298 | -162.97778 | 37001 ft | 472 kts | 80° |
| 2026-05-07 14:44 | 54.80215 | -162.86537 | 37000 ft | 472 kts | 80° |
| 2026-05-07 14:45 | 54.81118 | -162.75333 | 36997 ft | 472 kts | 80° |
| 2026-05-07 14:45 | 54.82013 | -162.64125 | 37003 ft | 472 kts | 80° |
| 2026-05-07 14:46 | 54.82900 | -162.52859 | 37011 ft | 472 kts | 80° |
| 2026-05-07 14:46 | 54.83777 | -162.41592 | 37005 ft | 472 kts | 80° |
| 2026-05-07 14:47 | 54.84640 | -162.30368 | 37012 ft | 472 kts | 81° |
| 2026-05-07 14:47 | 54.85494 | -162.19119 | 37002 ft | 472 kts | 81° |
| 2026-05-07 14:48 | 54.86338 | -162.07866 | 37003 ft | 471 kts | 81° |
| 2026-05-07 14:48 | 54.87168 | -161.96646 | 37005 ft | 472 kts | 81° |
| 2026-05-07 14:49 | 54.87990 | -161.85400 | 37009 ft | 473 kts | 81° |
| 2026-05-07 14:49 | 54.88804 | -161.74091 | 37008 ft | 473 kts | 81° |
| 2026-05-07 14:50 | 54.89607 | -161.62810 | 37009 ft | 473 kts | 81° |
| 2026-05-07 14:50 | 54.90400 | -161.51531 | 37009 ft | 473 kts | 82° |
| 2026-05-07 14:51 | 54.91180 | -161.40265 | 37007 ft | 472 kts | 82° |
| 2026-05-07 14:51 | 54.91954 | -161.28926 | 37006 ft | 473 kts | 83° |
| 2026-05-07 14:52 | 54.92715 | -161.17624 | 37009 ft | 473 kts | 83° |
| 2026-05-07 14:52 | 54.93466 | -161.06294 | 37008 ft | 474 kts | 83° |
| 2026-05-07 14:53 | 54.94203 | -160.95032 | 37013 ft | 474 kts | 83° |
| 2026-05-07 14:53 | 54.94937 | -160.83676 | 37019 ft | 473 kts | 83° |
| 2026-05-07 14:54 | 54.95658 | -160.72342 | 37021 ft | 473 kts | 83° |
| 2026-05-07 14:54 | 54.96363 | -160.61067 | 37008 ft | 472 kts | 83° |
| 2026-05-07 14:55 | 54.97060 | -160.49751 | 37022 ft | 473 kts | 83° |
| 2026-05-07 14:55 | 54.97748 | -160.38417 | 37022 ft | 473 kts | 83° |
| 2026-05-07 14:56 | 54.98426 | -160.27075 | 37023 ft | 474 kts | 84° |
| 2026-05-07 14:56 | 54.99092 | -160.15727 | 37023 ft | 473 kts | 84° |
| 2026-05-07 14:57 | 54.99784 | -160.04330 | 37022 ft | 473 kts | 82° |
| 2026-05-07 14:57 | 55.00966 | -159.93172 | 37021 ft | 472 kts | 76° |
| 2026-05-07 14:58 | 55.02531 | -159.82134 | 37019 ft | 472 kts | 75° |
| 2026-05-07 14:58 | 55.04116 | -159.71056 | 37017 ft | 472 kts | 75° |
| 2026-05-07 14:59 | 55.05682 | -159.59998 | 37018 ft | 473 kts | 75° |
| 2026-05-07 14:59 | 55.07243 | -159.48869 | 37016 ft | 474 kts | 76° |
| 2026-05-07 15:00 | 55.08789 | -159.37752 | 37018 ft | 474 kts | 76° |
| 2026-05-07 15:00 | 55.10332 | -159.26570 | 37018 ft | 474 kts | 77° |
| 2026-05-07 15:01 | 55.11850 | -159.15480 | 37019 ft | 474 kts | 77° |
| 2026-05-07 15:01 | 55.13372 | -159.04294 | 37018 ft | 474 kts | 77° |
| 2026-05-07 15:02 | 55.14883 | -158.93100 | 37021 ft | 475 kts | 77° |
| 2026-05-07 15:02 | 55.16375 | -158.81966 | 37026 ft | 475 kts | 77° |
| 2026-05-07 15:03 | 55.17873 | -158.70688 | 37032 ft | 477 kts | 77° |
| 2026-05-07 15:03 | 55.19359 | -158.59418 | 37035 ft | 476 kts | 77° |
| 2026-05-07 15:04 | 55.20826 | -158.48204 | 37036 ft | 477 kts | 77° |
| 2026-05-07 15:04 | 55.22293 | -158.36911 | 37036 ft | 477 kts | 77° |
| 2026-05-07 15:05 | 55.23741 | -158.25665 | 37036 ft | 477 kts | 78° |
| 2026-05-07 15:05 | 55.25188 | -158.14348 | 37038 ft | 477 kts | 78° |
| 2026-05-07 15:06 | 55.26616 | -158.03090 | 37039 ft | 477 kts | 78° |
| 2026-05-07 15:06 | 55.28048 | -157.91704 | 37040 ft | 478 kts | 78° |
| 2026-05-07 15:07 | 55.29453 | -157.80441 | 37041 ft | 478 kts | 78° |
| 2026-05-07 15:07 | 55.30859 | -157.69078 | 37038 ft | 477 kts | 78° |
| 2026-05-07 15:08 | 55.32255 | -157.57701 | 37028 ft | 477 kts | 78° |
| 2026-05-07 15:08 | 55.33628 | -157.46426 | 37027 ft | 477 kts | 78° |
| 2026-05-07 15:09 | 55.35007 | -157.35005 | 37027 ft | 478 kts | 78° |
| 2026-05-07 15:09 | 55.36370 | -157.23630 | 37027 ft | 478 kts | 79° |
| 2026-05-07 15:10 | 55.37720 | -157.12241 | 37029 ft | 478 kts | 79° |
| 2026-05-07 15:10 | 55.39060 | -157.00835 | 37028 ft | 477 kts | 79° |
| 2026-05-07 15:11 | 55.40384 | -156.89473 | 37027 ft | 477 kts | 79° |
| 2026-05-07 15:11 | 55.41702 | -156.78081 | 37025 ft | 478 kts | 79° |
| 2026-05-07 15:12 | 55.43009 | -156.66681 | 37026 ft | 478 kts | 79° |
| 2026-05-07 15:12 | 55.44312 | -156.55206 | 37026 ft | 479 kts | 79° |
| 2026-05-07 15:13 | 55.45601 | -156.43784 | 37026 ft | 479 kts | 79° |
| 2026-05-07 15:13 | 55.46885 | -156.32300 | 37026 ft | 480 kts | 80° |
| 2026-05-07 15:14 | 55.48156 | -156.20822 | 37026 ft | 480 kts | 80° |
| 2026-05-07 15:14 | 55.49419 | -156.09276 | 37027 ft | 479 kts | 80° |
| 2026-05-07 15:15 | 55.50660 | -155.97839 | 37029 ft | 479 kts | 80° |
| 2026-05-07 15:15 | 55.51897 | -155.86337 | 37031 ft | 480 kts | 80° |
| 2026-05-07 15:16 | 55.53126 | -155.74811 | 37032 ft | 480 kts | 80° |
| 2026-05-07 15:16 | 55.54346 | -155.63258 | 37033 ft | 481 kts | 81° |
| 2026-05-07 15:17 | 55.55558 | -155.51674 | 37032 ft | 482 kts | 81° |
| 2026-05-07 15:17 | 55.56759 | -155.40079 | 37035 ft | 482 kts | 81° |
| 2026-05-07 15:18 | 55.57948 | -155.28494 | 37033 ft | 481 kts | 82° |
| 2026-05-07 15:18 | 55.59127 | -155.16878 | 37034 ft | 481 kts | 82° |
| 2026-05-07 15:19 | 55.60292 | -155.05272 | 37034 ft | 481 kts | 82° |
| 2026-05-07 15:19 | 55.61441 | -154.93726 | 37033 ft | 481 kts | 82° |
| 2026-05-07 15:20 | 55.62587 | -154.82097 | 37032 ft | 481 kts | 82° |
| 2026-05-07 15:20 | 55.63724 | -154.70444 | 37033 ft | 482 kts | 82° |
| 2026-05-07 15:21 | 55.64849 | -154.58784 | 37034 ft | 483 kts | 82° |
| 2026-05-07 15:21 | 55.65961 | -154.47160 | 37033 ft | 483 kts | 82° |
| 2026-05-07 15:22 | 55.67072 | -154.35411 | 37033 ft | 484 kts | 82° |
| 2026-05-07 15:22 | 55.68163 | -154.23743 | 37033 ft | 483 kts | 83° |
| 2026-05-07 15:23 | 55.69247 | -154.12022 | 37034 ft | 483 kts | 83° |
| 2026-05-07 15:23 | 55.70318 | -154.00336 | 37034 ft | 484 kts | 83° |
| 2026-05-07 15:24 | 55.71380 | -153.88602 | 37035 ft | 484 kts | 83° |
| 2026-05-07 15:24 | 55.72430 | -153.76860 | 37035 ft | 485 kts | 83° |
| 2026-05-07 15:25 | 55.73472 | -153.65088 | 37035 ft | 485 kts | 83° |
| 2026-05-07 15:25 | 55.74502 | -153.53328 | 37037 ft | 486 kts | 83° |
| 2026-05-07 15:26 | 55.75523 | -153.41530 | 37037 ft | 487 kts | 83° |
| 2026-05-07 15:26 | 55.76534 | -153.29695 | 37037 ft | 487 kts | 84° |
| 2026-05-07 15:27 | 55.77539 | -153.17842 | 37038 ft | 487 kts | 84° |
| 2026-05-07 15:27 | 55.78529 | -153.06000 | 37037 ft | 488 kts | 84° |
| 2026-05-07 15:28 | 55.79508 | -152.94122 | 37042 ft | 487 kts | 84° |
| 2026-05-07 15:28 | 55.80474 | -152.82266 | 37037 ft | 488 kts | 84° |
| 2026-05-07 15:29 | 55.81429 | -152.70406 | 37042 ft | 488 kts | 85° |
| 2026-05-07 15:29 | 55.82369 | -152.58489 | 37043 ft | 489 kts | 84° |
| 2026-05-07 15:30 | 55.83318 | -152.46512 | 37040 ft | 491 kts | 84° |
| 2026-05-07 15:30 | 55.84233 | -152.34604 | 37041 ft | 491 kts | 85° |
| 2026-05-07 15:31 | 55.85179 | -152.22617 | 37042 ft | 491 kts | 86° |
| 2026-05-07 15:31 | 55.86079 | -152.10559 | 37039 ft | 492 kts | 86° |
| 2026-05-07 15:32 | 55.86951 | -151.98537 | 37039 ft | 492 kts | 85° |
| 2026-05-07 15:32 | 55.87841 | -151.86522 | 37041 ft | 492 kts | 86° |
| 2026-05-07 15:33 | 55.88715 | -151.74504 | 37044 ft | 493 kts | 86° |
| 2026-05-07 15:33 | 55.89582 | -151.62404 | 37045 ft | 495 kts | 86° |
| 2026-05-07 15:34 | 55.90443 | -151.50266 | 37046 ft | 496 kts | 87° |
| 2026-05-07 15:34 | 55.91263 | -151.38113 | 37042 ft | 497 kts | 86° |
| 2026-05-07 15:35 | 55.92105 | -151.25955 | 37051 ft | 497 kts | 87° |
| 2026-05-07 15:35 | 55.92926 | -151.13733 | 37059 ft | 498 kts | 87° |
| 2026-05-07 15:36 | 55.93742 | -151.01504 | 36952 ft | 500 kts | 87° |
| 2026-05-07 15:36 | 55.94541 | -150.89241 | 37035 ft | 502 kts | 87° |
| 2026-05-07 15:37 | 55.95336 | -150.76915 | 37066 ft | 503 kts | 87° |
| 2026-05-07 15:37 | 55.96115 | -150.64549 | 37054 ft | 503 kts | 87° |
| 2026-05-07 15:38 | 55.96884 | -150.52241 | 37061 ft | 504 kts | 87° |
| 2026-05-07 15:38 | 55.97647 | -150.39856 | 37068 ft | 504 kts | 87° |
| 2026-05-07 15:39 | 55.98387 | -150.27481 | 37064 ft | 504 kts | 88° |
| 2026-05-07 15:39 | 55.99118 | -150.15103 | 37063 ft | 503 kts | 88° |
| 2026-05-07 15:40 | 55.99658 | -150.02731 | 37071 ft | 501 kts | 92° |
| 2026-05-07 15:40 | 55.99454 | -149.90381 | 37065 ft | 496 kts | 100° |
| 2026-05-07 15:41 | 55.98735 | -149.78201 | 37063 ft | 495 kts | 101° |
| 2026-05-07 15:41 | 55.97994 | -149.66043 | 37066 ft | 496 kts | 101° |
| 2026-05-07 15:42 | 55.97248 | -149.53863 | 37056 ft | 496 kts | 101° |
| 2026-05-07 15:42 | 55.96482 | -149.41664 | 37062 ft | 496 kts | 101° |
| 2026-05-07 15:43 | 55.95717 | -149.29471 | 37068 ft | 496 kts | 102° |
| 2026-05-07 15:43 | 55.94937 | -149.17317 | 37062 ft | 496 kts | 102° |
| 2026-05-07 15:44 | 55.94155 | -149.05197 | 37062 ft | 497 kts | 102° |
| 2026-05-07 15:44 | 55.93357 | -148.93021 | 37060 ft | 497 kts | 102° |
| 2026-05-07 15:45 | 55.92540 | -148.80853 | 37075 ft | 496 kts | 102° |
| 2026-05-07 15:45 | 55.91720 | -148.68675 | 37064 ft | 496 kts | 102° |
| 2026-05-07 15:46 | 55.90463 | -148.50426 | 37073 ft | 498 kts | 102° |
| 2026-05-07 15:47 | 55.89601 | -148.38220 | 37075 ft | 498 kts | 102° |
| 2026-05-07 15:47 | 55.88730 | -148.26019 | 37068 ft | 499 kts | 103° |
| 2026-05-07 15:48 | 55.87844 | -148.13886 | 37081 ft | 498 kts | 103° |
| 2026-05-07 15:48 | 55.86941 | -148.01631 | 37092 ft | 499 kts | 103° |
| 2026-05-07 15:49 | 55.86049 | -147.89504 | 37077 ft | 499 kts | 103° |
| 2026-05-07 15:49 | 55.85124 | -147.77307 | 37075 ft | 499 kts | 103° |
| 2026-05-07 15:50 | 55.84196 | -147.65166 | 37093 ft | 500 kts | 103° |
| 2026-05-07 15:50 | 55.83254 | -147.52937 | 37081 ft | 500 kts | 103° |
| 2026-05-07 15:51 | 55.82296 | -147.40782 | 37087 ft | 500 kts | 103° |
| 2026-05-07 15:51 | 55.81318 | -147.28549 | 37081 ft | 499 kts | 104° |
| 2026-05-07 15:52 | 55.80335 | -147.16383 | 37103 ft | 499 kts | 104° |
| 2026-05-07 15:52 | 55.79342 | -147.04240 | 37096 ft | 499 kts | 104° |
| 2026-05-07 15:53 | 55.78337 | -146.92081 | 37070 ft | 499 kts | 104° |
| 2026-05-07 15:53 | 55.77323 | -146.79956 | 37090 ft | 499 kts | 104° |
| 2026-05-07 15:54 | 55.76294 | -146.67815 | 37095 ft | 499 kts | 104° |
| 2026-05-07 15:54 | 55.75258 | -146.55716 | 37108 ft | 500 kts | 104° |
| 2026-05-07 15:55 | 55.74205 | -146.43594 | 37107 ft | 501 kts | 104° |
| 2026-05-07 15:55 | 55.73138 | -146.31435 | 37101 ft | 500 kts | 105° |
| 2026-05-07 15:56 | 55.72062 | -146.19304 | 37094 ft | 500 kts | 105° |
| 2026-05-07 15:56 | 55.70967 | -146.07144 | 37129 ft | 501 kts | 105° |
| 2026-05-07 15:57 | 55.69872 | -145.95065 | 37137 ft | 500 kts | 105° |
| 2026-05-07 15:57 | 55.68756 | -145.82938 | 37136 ft | 500 kts | 105° |
| 2026-05-07 15:58 | 55.67629 | -145.70808 | 37120 ft | 500 kts | 105° |
| 2026-05-07 15:58 | 55.66489 | -145.58708 | 37127 ft | 501 kts | 105° |
| 2026-05-07 15:59 | 55.65339 | -145.46603 | 37117 ft | 501 kts | 105° |
| 2026-05-07 15:59 | 55.64173 | -145.34470 | 37118 ft | 501 kts | 105° |
| 2026-05-07 16:00 | 55.63002 | -145.22395 | 37120 ft | 500 kts | 105° |
| 2026-05-07 16:00 | 55.61823 | -145.10378 | 37113 ft | 500 kts | 105° |
| 2026-05-07 16:01 | 55.60627 | -144.98317 | 37118 ft | 500 kts | 106° |
| 2026-05-07 16:01 | 55.59414 | -144.86244 | 37114 ft | 501 kts | 105° |
| 2026-05-07 16:02 | 55.58200 | -144.74236 | 37124 ft | 500 kts | 105° |
| 2026-05-07 16:02 | 55.56967 | -144.62195 | 37116 ft | 502 kts | 106° |
| 2026-05-07 16:03 | 55.55714 | -144.50089 | 37128 ft | 502 kts | 106° |
| 2026-05-07 16:03 | 55.54449 | -144.37994 | 37129 ft | 502 kts | 106° |
| 2026-05-07 16:04 | 55.53185 | -144.25983 | 37127 ft | 501 kts | 107° |
| 2026-05-07 16:04 | 55.51896 | -144.13890 | 37142 ft | 501 kts | 107° |
| 2026-05-07 16:05 | 55.50602 | -144.01871 | 37146 ft | 502 kts | 107° |
| 2026-05-07 16:05 | 55.49298 | -143.89853 | 37125 ft | 501 kts | 107° |
| 2026-05-07 16:06 | 55.47980 | -143.77844 | 37129 ft | 502 kts | 107° |
| 2026-05-07 16:06 | 55.46656 | -143.65878 | 37133 ft | 502 kts | 107° |
| 2026-05-07 16:07 | 55.45309 | -143.53834 | 37136 ft | 503 kts | 107° |
| 2026-05-07 16:07 | 55.43948 | -143.41794 | 37139 ft | 503 kts | 107° |
| 2026-05-07 16:08 | 55.42587 | -143.29819 | 37141 ft | 502 kts | 107° |
| 2026-05-07 16:08 | 55.41204 | -143.17776 | 37139 ft | 502 kts | 107° |
| 2026-05-07 16:09 | 55.39814 | -143.05797 | 37141 ft | 502 kts | 107° |
| 2026-05-07 16:09 | 55.38418 | -142.93869 | 37150 ft | 501 kts | 107° |
| 2026-05-07 16:10 | 55.37008 | -142.81929 | 37151 ft | 501 kts | 107° |
| 2026-05-07 16:10 | 55.35584 | -142.70003 | 37156 ft | 502 kts | 107° |
| 2026-05-07 16:11 | 55.34149 | -142.58060 | 37156 ft | 502 kts | 107° |
| 2026-05-07 16:11 | 55.32696 | -142.46081 | 37158 ft | 502 kts | 107° |
| 2026-05-07 16:12 | 55.31235 | -142.34142 | 37155 ft | 502 kts | 108° |
| 2026-05-07 16:12 | 55.29771 | -142.22272 | 37155 ft | 502 kts | 108° |
| 2026-05-07 16:13 | 55.28287 | -142.10361 | 37159 ft | 502 kts | 108° |
| 2026-05-07 16:13 | 55.26789 | -141.98434 | 37165 ft | 501 kts | 108° |
| 2026-05-07 16:14 | 55.25285 | -141.86562 | 37167 ft | 502 kts | 108° |
| 2026-05-07 16:14 | 55.23768 | -141.74687 | 37168 ft | 503 kts | 108° |
| 2026-05-07 16:15 | 55.22237 | -141.62788 | 37170 ft | 502 kts | 108° |
| 2026-05-07 16:15 | 55.20695 | -141.50914 | 37171 ft | 502 kts | 108° |
| 2026-05-07 16:16 | 55.19150 | -141.39121 | 37172 ft | 502 kts | 108° |
| 2026-05-07 16:16 | 55.17585 | -141.27252 | 37174 ft | 502 kts | 109° |
| 2026-05-07 16:17 | 55.16007 | -141.15395 | 37177 ft | 502 kts | 109° |
| 2026-05-07 16:17 | 55.14420 | -141.03566 | 37179 ft | 502 kts | 109° |
| 2026-05-07 16:18 | 55.12828 | -140.91792 | 37180 ft | 501 kts | 109° |
| 2026-05-07 16:18 | 55.11214 | -140.79958 | 37183 ft | 502 kts | 109° |
| 2026-05-07 16:19 | 55.09593 | -140.68152 | 37188 ft | 503 kts | 109° |
| 2026-05-07 16:19 | 55.07964 | -140.56377 | 37192 ft | 503 kts | 109° |
| 2026-05-07 16:20 | 55.06318 | -140.44579 | 37194 ft | 503 kts | 109° |
| 2026-05-07 16:20 | 55.04661 | -140.32787 | 37194 ft | 503 kts | 109° |
| 2026-05-07 16:21 | 55.02994 | -140.20999 | 37199 ft | 502 kts | 109° |
| 2026-05-07 16:21 | 55.01313 | -140.09238 | 37200 ft | 503 kts | 109° |
| 2026-05-07 16:22 | 54.99400 | -139.97612 | 37202 ft | 499 kts | 115° |
| 2026-05-07 16:22 | 54.96922 | -139.86488 | 37206 ft | 497 kts | 117° |
| 2026-05-07 16:23 | 54.94353 | -139.75386 | 37206 ft | 495 kts | 118° |
| 2026-05-07 16:23 | 54.91783 | -139.64314 | 37202 ft | 497 kts | 117° |
| 2026-05-07 16:24 | 54.89214 | -139.53252 | 37207 ft | 495 kts | 118° |
| 2026-05-07 16:24 | 54.86634 | -139.42209 | 37206 ft | 495 kts | 117° |
| 2026-05-07 16:25 | 54.84056 | -139.31221 | 37201 ft | 495 kts | 118° |
| 2026-05-07 16:25 | 54.81480 | -139.20290 | 37200 ft | 493 kts | 118° |
| 2026-05-07 16:26 | 54.78886 | -139.09351 | 37203 ft | 493 kts | 118° |
| 2026-05-07 16:26 | 54.76260 | -138.98331 | 37201 ft | 494 kts | 118° |
| 2026-05-07 16:27 | 54.73644 | -138.87398 | 37201 ft | 495 kts | 118° |
| 2026-05-07 16:27 | 54.71011 | -138.76457 | 37206 ft | 495 kts | 118° |
| 2026-05-07 16:28 | 54.68383 | -138.65590 | 37204 ft | 494 kts | 118° |
| 2026-05-07 16:28 | 54.65734 | -138.54689 | 37206 ft | 494 kts | 118° |
| 2026-05-07 16:29 | 54.63075 | -138.43810 | 37206 ft | 494 kts | 118° |
| 2026-05-07 16:29 | 54.60413 | -138.32971 | 37207 ft | 494 kts | 119° |
| 2026-05-07 16:30 | 54.57731 | -138.22095 | 37207 ft | 494 kts | 119° |
| 2026-05-07 16:30 | 54.55059 | -138.11313 | 37209 ft | 493 kts | 119° |
| 2026-05-07 16:31 | 54.52364 | -138.00503 | 37212 ft | 494 kts | 119° |
| 2026-05-07 16:31 | 54.49667 | -137.89723 | 37215 ft | 493 kts | 119° |
| 2026-05-07 16:32 | 54.46938 | -137.78876 | 37216 ft | 494 kts | 119° |
| 2026-05-07 16:32 | 54.44223 | -137.68132 | 37220 ft | 494 kts | 119° |
| 2026-05-07 16:33 | 54.41484 | -137.57352 | 37223 ft | 494 kts | 119° |
| 2026-05-07 16:33 | 54.40124 | -137.52016 | 37514 ft | 495 kts | 119° |
| 2026-05-07 16:33 | 54.38746 | -137.46625 | 37343 ft | 493 kts | 119° |
| 2026-05-07 16:34 | 54.35989 | -137.35873 | 37238 ft | 493 kts | 119° |
| 2026-05-07 16:34 | 54.33246 | -137.25223 | 37226 ft | 493 kts | 120° |
| 2026-05-07 16:35 | 54.30474 | -137.14520 | 37225 ft | 492 kts | 120° |
| 2026-05-07 16:35 | 54.27703 | -137.03877 | 37225 ft | 493 kts | 120° |
| 2026-05-07 16:36 | 54.24913 | -136.93208 | 37223 ft | 492 kts | 120° |
| 2026-05-07 16:36 | 54.22136 | -136.82642 | 37223 ft | 492 kts | 120° |
| 2026-05-07 16:37 | 54.19329 | -136.72005 | 37223 ft | 492 kts | 120° |
| 2026-05-07 16:37 | 54.16523 | -136.61415 | 37222 ft | 493 kts | 119° |
| 2026-05-07 16:38 | 54.13703 | -136.50822 | 37222 ft | 494 kts | 120° |
| 2026-05-07 16:38 | 54.10869 | -136.40227 | 37224 ft | 494 kts | 119° |
| 2026-05-07 16:39 | 54.08010 | -136.29582 | 37222 ft | 492 kts | 120° |
| 2026-05-07 16:39 | 54.05166 | -136.19051 | 37223 ft | 492 kts | 120° |
| 2026-05-07 16:40 | 54.02295 | -136.08472 | 37221 ft | 493 kts | 120° |
| 2026-05-07 16:40 | 54.00870 | -136.03244 | 37329 ft | 496 kts | 120° |
| 2026-05-07 16:40 | 53.99342 | -135.97998 | 37682 ft | 492 kts | 123° |
| 2026-05-07 16:40 | 53.97731 | -135.92961 | 38066 ft | 490 kts | 124° |
| 2026-05-07 16:41 | 53.96103 | -135.87923 | 38398 ft | 488 kts | 124° |
| 2026-05-07 16:41 | 53.94461 | -135.82858 | 38668 ft | 489 kts | 124° |
| 2026-05-07 16:41 | 53.92842 | -135.77878 | 38884 ft | 489 kts | 124° |
| 2026-05-07 16:41 | 53.91192 | -135.72810 | 39138 ft | 489 kts | 124° |
| 2026-05-07 16:42 | 53.89545 | -135.67758 | 39221 ft | 491 kts | 124° |
| 2026-05-07 16:42 | 53.86253 | -135.57681 | 39224 ft | 490 kts | 124° |
| 2026-05-07 16:43 | 53.82962 | -135.47644 | 39223 ft | 490 kts | 124° |
| 2026-05-07 16:43 | 53.79678 | -135.37660 | 39222 ft | 490 kts | 124° |
| 2026-05-07 16:44 | 53.76344 | -135.27573 | 39221 ft | 489 kts | 125° |
| 2026-05-07 16:44 | 53.73040 | -135.17619 | 39221 ft | 490 kts | 125° |
| 2026-05-07 16:45 | 53.69709 | -135.07625 | 39223 ft | 490 kts | 125° |
| 2026-05-07 16:45 | 53.66381 | -134.97678 | 39222 ft | 490 kts | 125° |
| 2026-05-07 16:46 | 53.63028 | -134.87692 | 39221 ft | 490 kts | 125° |
| 2026-05-07 16:46 | 53.59683 | -134.77774 | 39222 ft | 491 kts | 125° |
| 2026-05-07 16:47 | 53.56316 | -134.67827 | 39221 ft | 491 kts | 124° |
| 2026-05-07 16:47 | 53.52929 | -134.57866 | 39221 ft | 490 kts | 124° |
| 2026-05-07 16:48 | 53.49564 | -134.48009 | 39223 ft | 490 kts | 124° |
| 2026-05-07 16:48 | 53.46173 | -134.38115 | 39223 ft | 490 kts | 124° |
| 2026-05-07 16:49 | 53.42792 | -134.28294 | 39224 ft | 490 kts | 125° |
| 2026-05-07 16:49 | 53.39391 | -134.18448 | 39224 ft | 489 kts | 125° |
| 2026-05-07 16:50 | 53.35976 | -134.08609 | 39222 ft | 489 kts | 125° |
| 2026-05-07 16:50 | 53.32558 | -133.98802 | 39222 ft | 490 kts | 125° |
| 2026-05-07 16:51 | 53.29155 | -133.89062 | 39220 ft | 490 kts | 125° |
| 2026-05-07 16:51 | 53.25720 | -133.79271 | 39215 ft | 489 kts | 125° |
| 2026-05-07 16:52 | 53.22279 | -133.69508 | 39206 ft | 489 kts | 125° |
| 2026-05-07 16:52 | 53.18842 | -133.59799 | 39204 ft | 490 kts | 125° |
| 2026-05-07 16:53 | 53.15368 | -133.50018 | 39203 ft | 491 kts | 125° |
| 2026-05-07 16:53 | 53.11908 | -133.40321 | 39202 ft | 491 kts | 125° |
| 2026-05-07 16:54 | 53.08413 | -133.30557 | 39198 ft | 491 kts | 126° |
| 2026-05-07 16:54 | 53.04933 | -133.20875 | 39200 ft | 491 kts | 126° |
| 2026-05-07 16:55 | 53.01427 | -133.11157 | 39201 ft | 492 kts | 126° |
| 2026-05-07 16:55 | 52.97935 | -133.01517 | 39200 ft | 492 kts | 126° |
| 2026-05-07 16:56 | 52.94414 | -132.91832 | 39198 ft | 492 kts | 126° |
| 2026-05-07 16:56 | 52.89103 | -132.77292 | 39194 ft | 492 kts | 126° |
| 2026-05-07 16:57 | 52.85569 | -132.67660 | 39191 ft | 491 kts | 126° |
| 2026-05-07 16:57 | 52.82049 | -132.58109 | 39193 ft | 490 kts | 126° |
| 2026-05-07 16:58 | 52.78506 | -132.48535 | 39194 ft | 491 kts | 126° |
| 2026-05-07 16:58 | 52.74946 | -132.38947 | 39192 ft | 491 kts | 126° |
| 2026-05-07 16:59 | 52.71399 | -132.29431 | 39188 ft | 491 kts | 127° |
| 2026-05-07 16:59 | 52.67817 | -132.19858 | 39190 ft | 491 kts | 127° |
| 2026-05-07 17:00 | 52.64250 | -132.10356 | 39191 ft | 491 kts | 127° |
| 2026-05-07 17:00 | 52.60643 | -132.00787 | 39189 ft | 491 kts | 127° |
| 2026-05-07 17:01 | 52.57060 | -131.91322 | 39188 ft | 491 kts | 126° |
| 2026-05-07 17:01 | 52.53474 | -131.81882 | 39189 ft | 491 kts | 127° |
| 2026-05-07 17:02 | 52.49857 | -131.72395 | 39191 ft | 492 kts | 126° |
| 2026-05-07 17:02 | 52.46218 | -131.62882 | 39190 ft | 492 kts | 126° |
| 2026-05-07 17:03 | 52.42613 | -131.53494 | 39188 ft | 491 kts | 126° |
| 2026-05-07 17:03 | 52.38969 | -131.44041 | 39186 ft | 492 kts | 126° |
| 2026-05-07 17:04 | 52.35328 | -131.34627 | 39193 ft | 493 kts | 127° |
| 2026-05-07 17:04 | 52.31676 | -131.25217 | 39192 ft | 492 kts | 127° |
| 2026-05-07 17:05 | 52.28005 | -131.15802 | 39190 ft | 492 kts | 127° |
| 2026-05-07 17:05 | 52.24349 | -131.06459 | 39187 ft | 492 kts | 127° |
| 2026-05-07 17:06 | 52.20680 | -130.97118 | 39184 ft | 491 kts | 127° |
| 2026-05-07 17:06 | 52.17001 | -130.87781 | 39181 ft | 491 kts | 127° |
| 2026-05-07 17:07 | 52.13316 | -130.78468 | 39180 ft | 491 kts | 127° |
| 2026-05-07 17:07 | 52.09629 | -130.69180 | 39179 ft | 492 kts | 127° |
| 2026-05-07 17:08 | 52.05906 | -130.59836 | 39180 ft | 493 kts | 127° |
| 2026-05-07 17:08 | 52.02200 | -130.50568 | 39180 ft | 493 kts | 127° |
| 2026-05-07 17:09 | 51.98467 | -130.41269 | 39180 ft | 493 kts | 127° |
| 2026-05-07 17:09 | 51.94745 | -130.32021 | 39179 ft | 493 kts | 127° |
| 2026-05-07 17:10 | 51.91000 | -130.22755 | 39180 ft | 493 kts | 128° |
| 2026-05-07 17:10 | 51.87247 | -130.13512 | 39182 ft | 493 kts | 128° |
| 2026-05-07 17:11 | 51.83508 | -130.04334 | 39181 ft | 493 kts | 127° |
| 2026-05-07 17:11 | 51.79740 | -129.95108 | 39179 ft | 493 kts | 127° |
| 2026-05-07 17:12 | 51.75956 | -129.85883 | 39178 ft | 493 kts | 127° |
| 2026-05-07 17:12 | 51.72183 | -129.76715 | 39179 ft | 493 kts | 127° |
| 2026-05-07 17:13 | 51.68417 | -129.67595 | 39178 ft | 493 kts | 127° |
| 2026-05-07 17:13 | 51.64605 | -129.58400 | 39176 ft | 493 kts | 127° |
| 2026-05-07 17:14 | 51.60816 | -129.49289 | 39175 ft | 494 kts | 127° |
| 2026-05-07 17:14 | 51.56993 | -129.40137 | 39174 ft | 493 kts | 127° |
| 2026-05-07 17:15 | 51.53177 | -129.31023 | 39172 ft | 493 kts | 128° |
| 2026-05-07 17:15 | 51.49345 | -129.21918 | 39171 ft | 494 kts | 128° |
| 2026-05-07 17:16 | 51.45534 | -129.12885 | 39171 ft | 494 kts | 128° |
| 2026-05-07 17:16 | 51.41691 | -129.03807 | 39171 ft | 495 kts | 128° |
| 2026-05-07 17:17 | 51.37826 | -128.94710 | 39168 ft | 495 kts | 128° |
| 2026-05-07 17:17 | 51.33962 | -128.85643 | 39168 ft | 494 kts | 128° |
| 2026-05-07 17:18 | 51.30111 | -128.76643 | 39165 ft | 494 kts | 128° |
| 2026-05-07 17:18 | 51.26239 | -128.67631 | 39163 ft | 496 kts | 128° |
| 2026-05-07 17:19 | 51.22339 | -128.58574 | 39161 ft | 496 kts | 128° |
| 2026-05-07 17:19 | 51.18445 | -128.49562 | 39158 ft | 497 kts | 128° |
| 2026-05-07 17:20 | 51.14526 | -128.40530 | 39161 ft | 496 kts | 128° |
| 2026-05-07 17:20 | 51.10600 | -128.31512 | 39156 ft | 497 kts | 129° |
| 2026-05-07 17:21 | 51.06665 | -128.22507 | 39156 ft | 496 kts | 128° |
| 2026-05-07 17:21 | 51.02724 | -128.13518 | 39156 ft | 497 kts | 128° |
| 2026-05-07 17:22 | 50.98794 | -128.04585 | 39154 ft | 497 kts | 128° |
| 2026-05-07 17:22 | 50.94837 | -127.95618 | 39155 ft | 498 kts | 128° |
| 2026-05-07 17:23 | 50.90882 | -127.86687 | 39153 ft | 498 kts | 128° |
| 2026-05-07 17:23 | 50.86912 | -127.77753 | 39150 ft | 498 kts | 128° |
| 2026-05-07 17:24 | 50.82914 | -127.68791 | 39144 ft | 499 kts | 128° |
| 2026-05-07 17:24 | 50.78938 | -127.59905 | 39153 ft | 500 kts | 128° |
| 2026-05-07 17:25 | 50.74910 | -127.50933 | 39162 ft | 500 kts | 128° |
| 2026-05-07 17:25 | 50.70916 | -127.42069 | 39168 ft | 500 kts | 128° |
| 2026-05-07 17:26 | 50.66869 | -127.33172 | 39163 ft | 499 kts | 129° |
| 2026-05-07 17:26 | 50.62752 | -127.24404 | 39156 ft | 499 kts | 130° |
| 2026-05-07 17:27 | 50.58616 | -127.15647 | 39150 ft | 499 kts | 130° |
| 2026-05-07 17:27 | 50.54495 | -127.06934 | 39138 ft | 500 kts | 130° |
| 2026-05-07 17:28 | 50.50343 | -126.98175 | 39134 ft | 500 kts | 129° |
| 2026-05-07 17:28 | 50.46226 | -126.89510 | 39121 ft | 500 kts | 129° |
| 2026-05-07 17:29 | 50.42079 | -126.80811 | 39112 ft | 500 kts | 129° |
| 2026-05-07 17:29 | 50.37904 | -126.72086 | 39113 ft | 500 kts | 130° |
| 2026-05-07 17:30 | 50.33749 | -126.63433 | 39101 ft | 500 kts | 129° |
| 2026-05-07 17:30 | 50.29587 | -126.54791 | 39096 ft | 501 kts | 129° |
| 2026-05-07 17:31 | 50.25397 | -126.46119 | 39082 ft | 501 kts | 129° |
| 2026-05-07 17:31 | 50.21185 | -126.37431 | 39077 ft | 502 kts | 129° |
| 2026-05-07 17:32 | 50.16996 | -126.28814 | 39080 ft | 501 kts | 130° |
| 2026-05-07 17:32 | 50.12774 | -126.20164 | 39078 ft | 501 kts | 130° |
| 2026-05-07 17:33 | 50.08557 | -126.11555 | 39080 ft | 501 kts | 130° |
| 2026-05-07 17:33 | 50.04346 | -126.02980 | 39079 ft | 502 kts | 130° |
| 2026-05-07 17:34 | 50.00123 | -125.94414 | 39083 ft | 503 kts | 130° |
| 2026-05-07 17:34 | 49.95865 | -125.85797 | 39088 ft | 502 kts | 130° |
| 2026-05-07 17:35 | 49.91645 | -125.77290 | 39101 ft | 502 kts | 130° |
| 2026-05-07 17:35 | 49.87388 | -125.68735 | 39099 ft | 502 kts | 130° |
| 2026-05-07 17:36 | 49.83110 | -125.60163 | 39113 ft | 503 kts | 130° |
| 2026-05-07 17:36 | 49.78851 | -125.51659 | 39108 ft | 503 kts | 130° |
| 2026-05-07 17:37 | 49.74557 | -125.43114 | 39100 ft | 504 kts | 130° |
| 2026-05-07 17:37 | 49.70278 | -125.34626 | 39104 ft | 504 kts | 130° |
| 2026-05-07 17:38 | 49.65964 | -125.26094 | 39120 ft | 504 kts | 130° |
| 2026-05-07 17:38 | 49.61667 | -125.17626 | 39114 ft | 505 kts | 130° |
| 2026-05-07 17:39 | 49.57350 | -125.09154 | 39123 ft | 505 kts | 130° |
| 2026-05-07 17:39 | 49.53014 | -125.00680 | 39123 ft | 504 kts | 130° |
| 2026-05-07 17:40 | 49.48656 | -124.92191 | 39104 ft | 505 kts | 130° |
| 2026-05-07 17:40 | 49.44326 | -124.83784 | 38942 ft | 507 kts | 130° |
| 2026-05-07 17:41 | 49.42143 | -124.79558 | 38283 ft | 509 kts | 130° |
| 2026-05-07 17:41 | 49.39961 | -124.75342 | 37710 ft | 508 kts | 130° |
| 2026-05-07 17:41 | 49.37752 | -124.71079 | 37139 ft | 507 kts | 130° |
| 2026-05-07 17:41 | 49.35591 | -124.66913 | 36580 ft | 506 kts | 130° |
| 2026-05-07 17:42 | 49.33400 | -124.62698 | 35988 ft | 505 kts | 130° |
| 2026-05-07 17:42 | 49.31234 | -124.58536 | 35425 ft | 502 kts | 130° |
| 2026-05-07 17:42 | 49.29069 | -124.54378 | 34870 ft | 500 kts | 129° |
| 2026-05-07 17:42 | 49.26908 | -124.50239 | 34306 ft | 499 kts | 129° |
| 2026-05-07 17:43 | 49.24749 | -124.46114 | 33770 ft | 499 kts | 129° |
| 2026-05-07 17:43 | 49.22580 | -124.41971 | 33222 ft | 500 kts | 129° |
| 2026-05-07 17:43 | 49.20414 | -124.37840 | 32655 ft | 500 kts | 129° |
| 2026-05-07 17:43 | 49.18256 | -124.33730 | 32076 ft | 500 kts | 130° |
| 2026-05-07 17:44 | 49.16090 | -124.29614 | 31491 ft | 499 kts | 130° |
| 2026-05-07 17:44 | 49.13922 | -124.25499 | 30894 ft | 499 kts | 129° |
| 2026-05-07 17:44 | 49.11756 | -124.21398 | 30291 ft | 499 kts | 129° |
| 2026-05-07 17:44 | 49.09581 | -124.17284 | 29676 ft | 499 kts | 129° |
| 2026-05-07 17:45 | 49.07413 | -124.13186 | 29053 ft | 499 kts | 129° |
| 2026-05-07 17:45 | 49.05235 | -124.09075 | 28409 ft | 499 kts | 129° |
| 2026-05-07 17:45 | 49.03066 | -124.04987 | 27742 ft | 500 kts | 129° |
| 2026-05-07 17:45 | 49.00891 | -124.00894 | 27145 ft | 498 kts | 129° |
| 2026-05-07 17:46 | 48.98732 | -123.96840 | 26761 ft | 495 kts | 129° |
| 2026-05-07 17:46 | 48.96549 | -123.92749 | 26265 ft | 493 kts | 129° |
| 2026-05-07 17:46 | 48.94408 | -123.88739 | 25796 ft | 488 kts | 129° |
| 2026-05-07 17:46 | 48.92285 | -123.84772 | 25317 ft | 485 kts | 129° |
| 2026-05-07 17:47 | 48.90188 | -123.80857 | 24813 ft | 481 kts | 129° |
| 2026-05-07 17:47 | 48.88078 | -123.76925 | 24361 ft | 477 kts | 129° |
| 2026-05-07 17:47 | 48.85981 | -123.73023 | 23918 ft | 472 kts | 129° |
| 2026-05-07 17:47 | 48.83933 | -123.69218 | 23508 ft | 467 kts | 129° |
| 2026-05-07 17:48 | 48.81880 | -123.65412 | 23071 ft | 463 kts | 129° |
| 2026-05-07 17:48 | 48.79860 | -123.61670 | 22677 ft | 458 kts | 129° |
| 2026-05-07 17:48 | 48.77864 | -123.57980 | 22252 ft | 454 kts | 129° |
| 2026-05-07 17:48 | 48.75874 | -123.54305 | 21849 ft | 450 kts | 129° |
| 2026-05-07 17:49 | 48.73822 | -123.50777 | 21436 ft | 446 kts | 134° |
| 2026-05-07 17:49 | 48.71550 | -123.47656 | 21024 ft | 442 kts | 141° |
| 2026-05-07 17:49 | 48.69074 | -123.44972 | 20608 ft | 438 kts | 147° |
| 2026-05-07 17:49 | 48.66489 | -123.42531 | 20184 ft | 434 kts | 148° |
| 2026-05-07 17:50 | 48.63921 | -123.40165 | 19769 ft | 431 kts | 148° |
| 2026-05-07 17:50 | 48.61406 | -123.37853 | 19362 ft | 428 kts | 148° |
| 2026-05-07 17:50 | 48.58877 | -123.35520 | 18942 ft | 425 kts | 148° |
| 2026-05-07 17:50 | 48.56368 | -123.33196 | 18527 ft | 422 kts | 148° |
| 2026-05-07 17:51 | 48.53887 | -123.30896 | 18114 ft | 419 kts | 148° |
| 2026-05-07 17:51 | 48.51395 | -123.28582 | 17714 ft | 416 kts | 148° |
| 2026-05-07 17:51 | 48.48971 | -123.26331 | 17582 ft | 408 kts | 148° |
| 2026-05-07 17:51 | 48.46587 | -123.24120 | 17498 ft | 405 kts | 148° |
| 2026-05-07 17:52 | 48.44192 | -123.21901 | 17401 ft | 403 kts | 148° |
| 2026-05-07 17:52 | 48.41795 | -123.19685 | 17310 ft | 402 kts | 148° |
| 2026-05-07 17:52 | 48.39431 | -123.17502 | 17233 ft | 400 kts | 148° |
| 2026-05-07 17:52 | 48.37062 | -123.15317 | 17134 ft | 393 kts | 148° |
| 2026-05-07 17:53 | 48.34768 | -123.13204 | 17098 ft | 380 kts | 148° |
| 2026-05-07 17:53 | 48.32547 | -123.11159 | 16864 ft | 375 kts | 148° |
| 2026-05-07 17:53 | 48.30353 | -123.09144 | 16471 ft | 374 kts | 148° |
| 2026-05-07 17:53 | 48.28139 | -123.07111 | 16078 ft | 372 kts | 148° |
| 2026-05-07 17:54 | 48.25949 | -123.05104 | 15704 ft | 369 kts | 148° |
| 2026-05-07 17:54 | 48.23767 | -123.03105 | 15355 ft | 366 kts | 148° |
| 2026-05-07 17:54 | 48.21601 | -123.01123 | 15051 ft | 364 kts | 148° |
| 2026-05-07 17:54 | 48.19450 | -122.99159 | 14675 ft | 362 kts | 148° |
| 2026-05-07 17:55 | 48.17316 | -122.97210 | 14325 ft | 359 kts | 148° |
| 2026-05-07 17:55 | 48.15198 | -122.95278 | 13998 ft | 357 kts | 148° |
| 2026-05-07 17:55 | 48.13084 | -122.93351 | 13648 ft | 354 kts | 148° |
| 2026-05-07 17:55 | 48.10998 | -122.91451 | 13352 ft | 352 kts | 148° |
| 2026-05-07 17:56 | 48.08913 | -122.89555 | 12960 ft | 350 kts | 148° |
| 2026-05-07 17:56 | 48.06855 | -122.87686 | 12627 ft | 347 kts | 148° |
| 2026-05-07 17:56 | 48.04807 | -122.85767 | 12327 ft | 343 kts | 142° |
| 2026-05-07 17:56 | 48.03122 | -122.83321 | 12108 ft | 336 kts | 126° |
| 2026-05-07 17:57 | 48.01820 | -122.80459 | 11812 ft | 333 kts | 121° |
| 2026-05-07 17:57 | 48.00999 | -122.78507 | 11617 ft | 331 kts | 121° |
| 2026-05-07 17:57 | 47.99402 | -122.74693 | 11319 ft | 324 kts | 121° |
| 2026-05-07 17:57 | 47.98344 | -122.71765 | 11095 ft | 319 kts | 112° |
| 2026-05-07 17:58 | 47.97535 | -122.68694 | 10845 ft | 315 kts | 108° |
| 2026-05-07 17:58 | 47.96813 | -122.65647 | 10634 ft | 310 kts | 108° |
| 2026-05-07 17:58 | 47.96113 | -122.62656 | 10417 ft | 306 kts | 108° |
| 2026-05-07 17:58 | 47.95412 | -122.59686 | 10065 ft | 302 kts | 107° |
| 2026-05-07 17:59 | 47.94719 | -122.56783 | 9654 ft | 296 kts | 108° |
| 2026-05-07 17:59 | 47.94030 | -122.53910 | 9242 ft | 292 kts | 108° |
| 2026-05-07 17:59 | 47.93349 | -122.51077 | 8893 ft | 288 kts | 108° |
| 2026-05-07 17:59 | 47.92633 | -122.48320 | 8504 ft | 286 kts | 117° |
| 2026-05-07 18:00 | 47.91289 | -122.46210 | 8147 ft | 284 kts | 152° |
| 2026-05-07 18:00 | 47.89465 | -122.45225 | 7884 ft | 277 kts | 166° |
| 2026-05-07 18:00 | 47.87615 | -122.44603 | 7629 ft | 271 kts | 167° |
| 2026-05-07 18:00 | 47.85790 | -122.43977 | 7306 ft | 268 kts | 166° |
| 2026-05-07 18:01 | 47.84088 | -122.43322 | 6984 ft | 263 kts | 164° |
| 2026-05-07 18:01 | 47.82345 | -122.42597 | 6764 ft | 257 kts | 163° |
| 2026-05-07 18:01 | 47.80647 | -122.41863 | 6561 ft | 254 kts | 163° |
| 2026-05-07 18:01 | 47.78956 | -122.41119 | 6373 ft | 252 kts | 162° |
| 2026-05-07 18:02 | 47.75685 | -122.39369 | 5870 ft | 252 kts | 154° |
| 2026-05-07 18:02 | 47.74088 | -122.38241 | 5594 ft | 252 kts | 153° |
| 2026-05-07 18:02 | 47.72522 | -122.37111 | 5398 ft | 250 kts | 153° |
| 2026-05-07 18:03 | 47.70948 | -122.35979 | 5170 ft | 250 kts | 153° |
| 2026-05-07 18:03 | 47.69410 | -122.34877 | 4862 ft | 246 kts | 154° |
| 2026-05-07 18:03 | 47.67871 | -122.33785 | 4560 ft | 242 kts | 154° |
| 2026-05-07 18:03 | 47.66361 | -122.32712 | 4253 ft | 240 kts | 155° |
| 2026-05-07 18:04 | 47.64803 | -122.31906 | 3907 ft | 236 kts | 168° |
| 2026-05-07 18:04 | 47.63204 | -122.31613 | 3622 ft | 228 kts | 178° |
| 2026-05-07 18:04 | 47.61648 | -122.31598 | 3342 ft | 221 kts | 181° |
| 2026-05-07 18:04 | 47.60135 | -122.31648 | 3075 ft | 214 kts | 181° |
| 2026-05-07 18:05 | 47.58680 | -122.31682 | 2850 ft | 206 kts | 181° |
| 2026-05-07 18:05 | 47.57281 | -122.31697 | 2586 ft | 196 kts | 181° |
| 2026-05-07 18:05 | 47.55943 | -122.31705 | 2334 ft | 185 kts | 181° |
| 2026-05-07 18:05 | 47.54702 | -122.31712 | 2086 ft | 177 kts | 182° |
| 2026-05-07 18:06 | 47.53499 | -122.31726 | 1839 ft | 169 kts | 182° |
| 2026-05-07 18:06 | 47.52347 | -122.31738 | 1617 ft | 161 kts | 182° |
| 2026-05-07 18:06 | 47.51255 | -122.31747 | 1416 ft | 153 kts | 182° |
| 2026-05-07 18:06 | 47.50211 | -122.31756 | 1219 ft | 147 kts | 182° |
| 2026-05-07 18:07 | 47.49205 | -122.31765 | 1005 ft | 142 kts | 181° |
| 2026-05-07 18:07 | 47.48209 | -122.31769 | 817 ft | 143 kts | 182° |
| 2026-05-07 18:07 | 47.47223 | -122.31781 | 637 ft | 143 kts | 181° |
| 2026-05-07 18:07 | 47.46241 | -122.31788 | 466 ft | 140 kts | 181° |
| 2026-05-07 18:08 | 47.45338 | -122.31798 | 445 ft | 109 kts | 180° |
| 2026-05-07 18:08 | 47.44762 | -122.31801 | 445 ft | 56 kts | 181° |
| 2026-05-07 18:08 | 47.44511 | -122.31802 | 445 ft | 20 kts | 178° |
| 2026-05-07 18:08 | 47.44371 | -122.31774 | 445 ft | 20 kts | 167° |
| 2026-05-07 18:09 | 47.44242 | -122.31700 | 445 ft | 19 kts | 151° |
| 2026-05-07 18:09 | 47.44125 | -122.31601 | 445 ft | 19 kts | 150° |
| 2026-05-07 18:09 | 47.44008 | -122.31503 | 445 ft | 19 kts | 150° |
| 2026-05-07 18:09 | 47.43894 | -122.31408 | 445 ft | 16 kts | 150° |
| 2026-05-07 18:10 | 47.43817 | -122.31305 | 445 ft | 15 kts | 117° |
| 2026-05-07 18:10 | 47.43805 | -122.31163 | 445 ft | 14 kts | 90° |
| 2026-05-07 18:10 | 47.43805 | -122.31012 | 445 ft | 15 kts | 90° |
| 2026-05-07 18:10 | 47.43805 | -122.30856 | 445 ft | 15 kts | 91° |
| 2026-05-07 18:11 | 47.43805 | -122.30710 | 445 ft | 10 kts | 85° |
| 2026-05-07 18:11 | 47.43852 | -122.30643 | 445 ft | 11 kts | 7° |
| 2026-05-07 18:11 | 47.43935 | -122.30640 | 445 ft | 11 kts | 1° |
| 2026-05-07 18:11 | 47.43989 | -122.30574 | 445 ft | 11 kts | 82° |
| 2026-05-07 18:12 | 47.43990 | -122.30444 | 445 ft | 13 kts | 90° |
| 2026-05-07 18:12 | 47.44006 | -122.30306 | 445 ft | 14 kts | 65° |
| 2026-05-07 18:12 | 47.44047 | -122.30175 | 445 ft | 14 kts | 86° |
| 2026-05-07 18:12 | 47.44052 | -122.30104 | 445 ft | 3 kts | 71° |
| 2026-05-07 18:13 | 47.44070 | -122.30067 | 445 ft | 3 kts | 45° |
| 2026-05-07 18:13 | 47.44081 | -122.30051 | 445 ft | 0 kts | 45° |
| 2026-05-07 18:13 | 47.44082 | -122.30050 | 445 ft | 0 kts | 45° |